Time;durP1;ratioP1;P1;durP2;ratioP2;P2;SDS_P1;SDS_P2;PMS_P1;PMS_P2;Temp;Humidity;BMP_temperature;BMP_pressure;BME280_temperature;BME280_humidity;BME280_pressure;Samples;Min_cycle;Max_cycle;Signal;HPM_P1;HPM_P2
2023/01/12 00:02:18;;;;;;;19.27;6.88;;;;;;;4.39;100.00;100770.13;7396657;19;20074;-70
2023/01/12 00:04:47;;;;;;;16.55;7.50;;;;;;;4.38;100.00;100779.63;7396380;19;20379;-68
2023/01/12 00:07:16;;;;;;;16.30;6.60;;;;;;;4.37;100.00;100775.31;7395871;19;20506;-68
2023/01/12 00:09:45;;;;;;;17.50;6.53;;;;;;;4.37;100.00;100780.50;7395813;19;20482;-68
2023/01/12 00:12:14;;;;;;;21.00;7.18;;;;;;;4.37;100.00;100788.31;7398199;19;20466;-68
2023/01/12 00:14:42;;;;;;;17.25;5.93;;;;;;;4.38;100.00;100791.75;7396153;19;20092;-68
2023/01/12 00:17:16;;;;;;;13.98;5.18;;;;;;;4.37;100.00;100788.31;7398060;19;20018;-67
2023/01/12 00:19:44;;;;;;;16.25;5.60;;;;;;;4.38;100.00;100794.34;7398464;19;20014;-68
2023/01/12 00:22:18;;;;;;;16.48;5.05;;;;;;;4.37;100.00;100782.22;7396579;19;20094;-68
2023/01/12 00:24:48;;;;;;;17.65;5.57;;;;;;;4.37;100.00;100764.91;7395849;19;20041;-68
2023/01/12 00:27:18;;;;;;;13.27;5.35;;;;;;;4.37;100.00;100762.31;7396396;19;20551;-68
2023/01/12 00:29:47;;;;;;;13.30;4.78;;;;;;;4.36;100.00;100765.78;7397977;19;20081;-68
2023/01/12 00:32:21;;;;;;;14.30;4.97;;;;;;;4.36;100.00;100763.19;7397636;19;20078;-67
2023/01/12 00:34:49;;;;;;;13.32;4.13;;;;;;;4.36;100.00;100757.09;7393454;19;20504;-68
2023/01/12 00:37:18;;;;;;;16.35;5.20;;;;;;;4.37;100.00;100764.03;7397475;19;20018;-69
2023/01/12 00:39:46;;;;;;;11.55;4.45;;;;;;;4.37;100.00;100761.44;7397908;19;20018;-74
2023/01/12 00:47:47;;;;;;;27.45;5.68;;;;;;;4.35;100.00;100764.03;7397046;19;20482;-72
2023/01/12 00:50:16;;;;;;;14.13;4.00;;;;;;;4.36;100.00;100764.88;7396565;19;20486;-73
2023/01/12 00:52:44;;;;;;;13.00;4.30;;;;;;;4.34;100.00;100767.50;7396542;19;20019;-73
2023/01/12 00:55:13;;;;;;;15.88;4.30;;;;;;;4.33;100.00;100765.75;7396823;19;20070;-72
2023/01/12 00:57:41;;;;;;;15.20;4.32;;;;;;;4.33;100.00;100755.34;7396716;19;20022;-72
2023/01/12 01:00:11;;;;;;;12.32;3.78;;;;;;;4.32;100.00;100747.56;7396294;19;20541;-72
2023/01/12 01:02:40;;;;;;;17.20;4.47;;;;;;;4.31;100.00;100736.31;7395182;19;20018;-72
2023/01/12 01:05:11;;;;;;;11.57;4.25;;;;;;;4.28;100.00;100736.28;7396089;19;20486;-73
2023/01/12 01:07:40;;;;;;;21.90;4.32;;;;;;;4.28;100.00;100748.41;7396811;19;20014;-72
2023/01/12 01:10:09;;;;;;;13.15;4.65;;;;;;;4.26;100.00;100761.41;7396402;19;20022;-73
2023/01/12 01:12:38;;;;;;;13.90;4.38;;;;;;;4.23;100.00;100753.59;7396046;19;20074;-73
2023/01/12 01:15:07;;;;;;;9.10;3.90;;;;;;;4.21;100.00;100751.00;7396176;19;20085;-72
2023/01/12 01:17:36;;;;;;;17.08;4.13;;;;;;;4.20;100.00;100753.59;7396078;19;20447;-72
2023/01/12 01:20:04;;;;;;;15.27;4.38;;;;;;;4.18;100.00;100756.19;7396025;19;20019;-73
2023/01/12 01:22:35;;;;;;;16.95;3.67;;;;;;;4.16;100.00;100757.03;7394600;19;20022;-73
2023/01/12 01:25:04;;;;;;;9.88;3.58;;;;;;;4.14;100.00;100751.81;7396288;19;20086;-71
2023/01/12 01:27:45;;;;;;;12.45;3.50;;;;;;;4.14;100.00;100753.56;7392133;19;20074;-72
2023/01/12 01:30:14;;;;;;;16.00;3.83;;;;;;;4.13;100.00;100757.00;7394290;19;20021;-72
2023/01/12 01:32:42;;;;;;;9.95;3.58;;;;;;;4.11;100.00;100751.81;7390910;19;20094;-72
2023/01/12 01:35:11;;;;;;;11.95;3.33;;;;;;;4.11;100.00;100745.72;7393696;19;20031;-73
2023/01/12 01:37:42;;;;;;;6.80;3.28;;;;;;;4.10;100.00;100738.81;7390398;19;20472;-72
2023/01/12 01:40:12;;;;;;;13.60;3.22;;;;;;;4.09;100.00;100737.94;7393513;19;20489;-72
2023/01/12 01:42:41;;;;;;;12.13;3.47;;;;;;;4.10;100.00;100725.84;7391476;19;20086;-72
2023/01/12 01:45:15;;;;;;;9.80;3.38;;;;;;;4.10;100.00;100711.13;7390983;19;20014;-72
2023/01/12 01:47:47;;;;;;;11.98;3.55;;;;;;;4.11;100.00;100706.78;7392689;19;20378;-73
2023/01/12 01:50:19;;;;;;;13.25;3.42;;;;;;;4.11;100.00;100692.09;7393113;19;20023;-72
2023/01/12 01:52:55;;;;;;;14.85;3.33;;;;;;;4.12;100.00;100679.97;7393172;19;20014;-72
2023/01/12 01:55:26;;;;;;;9.40;3.10;;;;;;;4.13;100.00;100700.72;7390734;19;20027;-73
2023/01/12 01:57:59;;;;;;;13.32;3.50;;;;;;;4.16;100.00;100700.75;7393573;19;20431;-73
2023/01/12 02:00:28;;;;;;;16.98;3.72;;;;;;;4.19;100.00;100699.91;7393614;19;20040;-72
2023/01/12 02:02:58;;;;;;;14.18;2.70;;;;;;;4.20;100.00;100686.91;7390343;19;20018;-72
2023/01/12 02:05:28;;;;;;;9.25;2.65;;;;;;;4.22;100.00;100682.63;7393050;19;20039;-72
2023/01/12 02:08:05;;;;;;;11.75;2.85;;;;;;;4.23;100.00;100684.34;7392428;19;20035;-72
2023/01/12 02:10:34;;;;;;;9.82;2.88;;;;;;;4.23;100.00;100675.69;7392936;19;20023;-73
2023/01/12 02:18:41;;;;;;;8.45;2.70;;;;;;;4.33;100.00;100677.44;7392635;19;20003;-68
2023/01/12 02:21:37;;;;;;;11.70;2.70;;;;;;;4.36;100.00;100673.97;7392926;19;20026;-70
2023/01/12 02:24:39;;;;;;;12.52;2.63;;;;;;;4.37;100.00;100671.41;7390033;19;20482;-69
2023/01/12 02:27:41;;;;;;;13.02;2.60;;;;;;;4.40;100.00;100674.00;7392355;19;20085;-70
2023/01/12 02:30:57;;;;;;;9.18;2.80;;;;;;;4.44;100.00;100679.22;7394109;19;20018;-69
2023/01/12 02:33:40;;;;;;;12.85;2.70;;;;;;;4.48;100.00;100670.56;7391584;19;20018;-70
2023/01/12 02:36:18;;;;;;;11.15;2.67;;;;;;;4.50;100.00;100667.09;7394121;19;20094;-70
2023/01/12 02:38:52;;;;;;;9.35;2.85;;;;;;;4.55;100.00;100664.53;7392289;19;20078;-69
2023/01/12 02:42:39;;;;;;;14.82;3.00;;;;;;;4.56;100.00;100654.13;7393840;19;20416;-70
2023/01/12 02:44:18;;;;;;;16.38;3.35;;;;;;;4.60;100.00;100648.91;7391463;19;20375;-70
2023/01/12 02:46:52;;;;;;;11.65;2.75;;;;;;;4.60;100.00;100639.41;7393292;19;20023;-68
2023/01/12 02:49:26;;;;;;;;;;;;;;;4.60;100.00;100641.13;7394199;19;20082;-69
2023/01/12 02:51:59;;;;;;;7.78;2.20;;;;;;;4.59;100.00;100637.66;7391754;19;19935;-70
2023/01/12 02:54:29;;;;;;;10.68;3.03;;;;;;;4.60;100.00;100643.72;7391842;19;20019;-70
2023/01/12 02:57:03;;;;;;;12.05;2.40;;;;;;;4.58;100.00;100635.94;7394627;19;20040;-69
2023/01/12 02:59:35;;;;;;;8.32;2.28;;;;;;;4.61;100.00;100633.31;7401647;19;20151;-70
2023/01/12 03:02:08;;;;;;;14.70;2.70;;;;;;;4.60;100.00;100634.22;7399550;19;20496;-70
2023/01/12 03:04:40;;;;;;;9.80;1.85;;;;;;;4.60;100.00;100639.41;7398288;19;20018;-70
2023/01/12 03:07:46;;;;;;;13.68;2.40;;;;;;;4.62;100.00;100639.41;7398320;19;20022;-70
2023/01/12 03:10:25;;;;;;;10.32;2.03;;;;;;;4.62;100.00;100642.84;7400729;19;20018;-70
2023/01/12 03:12:55;;;;;;;13.50;2.42;;;;;;;4.63;100.00;100631.59;7400860;19;20031;-71
2023/01/12 03:15:27;;;;;;;10.52;2.50;;;;;;;4.62;100.00;100621.22;7401619;19;20031;-70
2023/01/12 03:18:00;;;;;;;8.32;1.75;;;;;;;4.63;100.00;100618.59;7400763;19;20014;-70
2023/01/12 03:20:35;;;;;;;10.32;1.80;;;;;;;4.63;100.00;100620.34;7400410;19;20036;-71
2023/01/12 03:23:09;;;;;;;7.78;2.20;;;;;;;4.64;100.00;100609.94;7399524;19;20022;-70
2023/01/12 03:25:41;;;;;;;13.57;2.15;;;;;;;4.64;100.00;100604.75;7400392;19;20038;-70
2023/01/12 03:28:13;;;;;;;14.02;2.70;;;;;;;4.67;100.00;100617.72;7398317;19;20428;-70
2023/01/12 03:30:45;;;;;;;7.35;1.60;;;;;;;4.69;100.00;100617.75;7399440;19;20482;-70
2023/01/12 03:33:14;;;;;;;4.97;1.77;;;;;;;4.69;100.00;100616.00;7398945;19;20018;-70
2023/01/12 03:35:52;;;;;;;8.90;2.55;;;;;;;4.70;100.00;100614.25;7397130;19;20028;-69
2023/01/12 03:38:26;;;;;;;8.88;1.85;;;;;;;4.72;100.00;100620.34;7399018;19;20486;-70
2023/01/12 03:41:03;;;;;;;9.80;1.98;;;;;;;4.73;100.00;100614.28;7397383;19;20022;-70
2023/01/12 03:43:38;;;;;;;7.15;1.80;;;;;;;4.73;100.00;100609.09;7397261;19;20036;-70
2023/01/12 03:46:15;;;;;;;10.90;2.10;;;;;;;4.75;100.00;100603.88;7399515;19;20031;-69
2023/01/12 03:48:48;;;;;;;8.32;1.60;;;;;;;4.79;100.00;100597.81;7399477;19;20410;-69
2023/01/12 03:51:22;;;;;;;5.57;1.58;;;;;;;4.81;99.77;100604.75;7398815;19;20014;-69
2023/01/12 03:53:53;;;;;;;9.27;1.60;;;;;;;4.86;99.68;100596.94;7396814;19;20018;-69
2023/01/12 03:56:24;;;;;;;7.90;1.90;;;;;;;4.88;98.34;100596.06;7399209;19;20073;-70
2023/01/12 03:58:54;;;;;;;7.63;1.70;;;;;;;4.94;99.15;100587.41;7399144;19;20073;-70
2023/01/12 04:01:22;;;;;;;8.27;2.22;;;;;;;4.98;98.30;100590.84;7398638;19;20077;-71
2023/01/12 04:03:51;;;;;;;6.95;1.38;;;;;;;5.04;97.69;100603.84;7396117;19;20090;-70
2023/01/12 04:06:22;;;;;;;6.93;1.73;;;;;;;5.08;97.31;100594.31;7398049;19;20514;-70
2023/01/12 04:08:50;;;;;;;9.52;1.90;;;;;;;5.13;96.25;100603.88;7395496;19;20419;-70
2023/01/12 04:14:00;;;;;;;11.02;1.98;;;;;;;5.24;96.51;100589.97;7396734;19;20013;-70
2023/01/12 04:16:28;;;;;;;4.15;1.20;;;;;;;5.28;95.10;100587.38;7398803;19;20027;-71
2023/01/12 04:18:56;;;;;;;8.93;1.65;;;;;;;5.33;94.85;100588.22;7397888;19;20090;-70
2023/01/12 04:24:09;;;;;;;6.43;1.52;;;;;;;5.39;94.23;100582.13;7396447;19;20017;-71
2023/01/12 04:26:37;;;;;;;7.03;1.90;;;;;;;5.43;94.82;100580.38;7397735;19;20444;-71
2023/01/12 04:29:06;;;;;;;8.98;1.75;;;;;;;5.49;94.73;100577.75;7395633;19;20156;-70
2023/01/12 04:31:34;;;;;;;9.07;2.97;;;;;;;5.52;94.74;100578.63;7395678;19;20022;-70
2023/01/12 04:34:02;;;;;;;10.18;1.83;;;;;;;5.55;92.78;100572.53;7395500;19;20502;-70
2023/01/12 04:36:34;;;;;;;7.80;1.25;;;;;;;5.61;92.75;100564.72;7397367;19;20081;-70
2023/01/12 04:39:02;;;;;;;8.32;2.00;;;;;;;5.65;93.79;100565.53;7397587;19;20078;-71
2023/01/12 04:41:30;;;;;;;9.82;1.63;;;;;;;5.66;92.34;100562.94;7396427;19;20471;-70
2023/01/12 04:43:59;;;;;;;9.55;1.90;;;;;;;5.69;94.12;100549.03;7395343;19;20018;-70
2023/01/12 04:46:27;;;;;;;12.75;1.98;;;;;;;5.71;93.23;100550.78;7396816;19;20066;-71
2023/01/12 04:48:56;;;;;;;11.45;2.53;;;;;;;5.74;94.15;100556.81;7395109;19;20073;-71
2023/01/12 04:51:24;;;;;;;7.95;1.58;;;;;;;5.75;93.49;100554.22;7396606;19;20029;-70
2023/01/12 04:53:55;;;;;;;8.32;2.65;;;;;;;5.76;94.36;100555.94;7395467;19;20069;-69
2023/01/12 04:56:24;;;;;;;11.20;2.60;;;;;;;5.76;94.04;100544.66;7396179;19;20021;-70
2023/01/12 04:58:59;;;;;;;5.90;2.00;;;;;;;5.75;95.22;100550.75;7396062;19;20487;-70
2023/01/12 05:01:28;;;;;;;8.77;2.58;;;;;;;5.76;94.36;100545.53;7396738;19;20103;-70
2023/01/12 05:03:59;;;;;;;9.00;1.90;;;;;;;5.75;94.25;100542.94;7394549;19;20054;-70
2023/01/12 05:06:28;;;;;;;12.85;2.03;;;;;;;5.76;93.60;100548.13;7394765;19;20035;-70
2023/01/12 05:11:40;;;;;;;8.73;2.13;;;;;;;5.77;93.94;100534.25;7396714;19;20014;-71
2023/01/12 05:14:09;;;;;;;8.15;1.80;;;;;;;5.77;94.58;100541.19;7394184;19;20082;-71
2023/01/12 05:16:37;;;;;;;9.95;1.98;;;;;;;5.76;94.16;100537.72;7396044;19;20074;-70
2023/01/12 05:19:06;;;;;;;10.00;1.85;;;;;;;5.76;94.58;100532.50;7395648;19;20026;-70
2023/01/12 05:21:34;;;;;;;5.95;1.60;;;;;;;5.76;94.60;100542.91;7394428;19;20086;-69
2023/01/12 05:24:05;;;;;;;10.70;1.98;;;;;;;5.75;94.89;100538.59;7394474;19;20082;-70
2023/01/12 05:26:34;;;;;;;6.88;2.08;;;;;;;5.75;94.38;100532.53;7395400;19;20549;-70
2023/01/12 05:29:02;;;;;;;9.48;2.13;;;;;;;5.75;94.60;100533.41;7393880;19;20074;-70
2023/01/12 05:31:31;;;;;;;5.82;1.73;;;;;;;5.75;94.64;100525.59;7395708;19;20019;-70
2023/01/12 05:33:59;;;;;;;9.77;2.13;;;;;;;5.71;94.84;100511.72;7393192;19;20549;-70
2023/01/12 05:36:27;;;;;;;5.30;1.70;;;;;;;5.75;95.03;100516.91;7393702;19;20019;-70
2023/01/12 05:38:56;;;;;;;8.65;2.28;;;;;;;5.73;95.30;100511.72;7395103;19;20089;-71
2023/01/12 05:41:27;;;;;;;8.10;2.15;;;;;;;5.71;94.32;100516.03;7394824;19;20090;-70
2023/01/12 05:43:53;;;;;;;10.60;1.80;;;;;;;5.69;94.55;100518.66;7393228;19;20099;-72
2023/01/12 05:46:24;;;;;;;9.20;3.17;;;;;;;5.67;94.98;100514.34;7395270;19;20011;-70
2023/01/12 05:48:54;;;;;;;9.63;2.90;;;;;;;5.65;94.95;100519.56;7394951;19;20017;-69
2023/01/12 05:51:24;;;;;;;7.47;2.00;;;;;;;5.63;94.84;100523.91;7394332;19;20044;-70
2023/01/12 05:53:52;;;;;;;8.48;2.00;;;;;;;5.61;94.63;100523.06;7393318;19;20019;-71
2023/01/12 05:56:24;;;;;;;6.00;1.73;;;;;;;5.62;94.95;100527.38;7393595;19;20496;-70
2023/01/12 05:58:57;;;;;;;8.68;1.83;;;;;;;5.63;95.12;100530.84;7395415;19;20030;-70
2023/01/12 06:01:26;;;;;;;9.52;2.15;;;;;;;5.64;95.29;100533.44;7393162;19;20014;-70
2023/01/12 06:03:57;;;;;;;13.13;2.78;;;;;;;5.66;94.47;100533.44;7392679;19;20010;-71
2023/01/12 06:06:29;;;;;;;6.95;1.67;;;;;;;5.68;95.05;100526.50;7392616;19;20034;-71
2023/01/12 06:08:58;;;;;;;8.23;2.00;;;;;;;5.70;94.92;100536.00;7393254;19;20390;-71
2023/01/12 06:14:11;;;;;;;8.50;1.95;;;;;;;5.77;93.77;100518.63;7393094;19;20078;-70
2023/01/12 06:16:41;;;;;;;9.77;1.67;;;;;;;5.77;94.46;100508.19;7393998;19;20486;-71
2023/01/12 06:19:10;;;;;;;5.70;1.50;;;;;;;5.84;94.99;100516.88;7393273;19;20103;-70
2023/01/12 06:21:39;;;;;;;12.10;2.08;;;;;;;5.87;94.16;100516.84;7392703;19;20010;-70
2023/01/12 06:24:08;;;;;;;8.50;2.63;;;;;;;5.89;94.48;100509.91;7390903;19;20520;-70
2023/01/12 06:26:37;;;;;;;7.68;2.00;;;;;;;5.92;94.54;100511.59;7394113;19;20481;-69
2023/01/12 06:29:06;;;;;;;8.43;1.65;;;;;;;5.94;94.24;100500.31;7391680;19;20508;-69
2023/01/12 06:31:37;;;;;;;5.82;1.70;;;;;;;5.95;94.51;100501.16;7394623;19;20018;-71
2023/01/12 06:34:06;;;;;;;7.75;2.08;;;;;;;5.99;93.82;100495.97;7398237;19;20031;-69
2023/01/12 06:36:35;;;;;;;11.95;2.28;;;;;;;6.03;94.42;100491.59;7400646;19;20017;-70
2023/01/12 06:39:03;;;;;;;6.15;1.95;;;;;;;6.06;94.65;100503.75;7400086;19;20081;-70
2023/01/12 06:44:13;;;;;;;10.38;2.22;;;;;;;6.10;94.74;100495.88;7398201;19;20018;-70
2023/01/12 06:46:44;;;;;;;8.57;2.10;;;;;;;6.11;94.45;100497.59;7400728;19;20162;-72
2023/01/12 06:49:12;;;;;;;10.25;2.13;;;;;;;6.12;93.61;100491.53;7399617;19;20018;-72
2023/01/12 06:51:41;;;;;;;8.48;1.73;;;;;;;6.13;93.46;100492.38;7399879;19;20553;-73
2023/01/12 06:54:09;;;;;;;8.45;1.58;;;;;;;6.16;94.29;100487.16;7398559;19;20085;-73
2023/01/12 06:56:38;;;;;;;7.82;2.10;;;;;;;6.18;93.47;100480.22;7400060;19;20014;-73
2023/01/12 06:59:06;;;;;;;7.22;1.92;;;;;;;6.18;93.54;100475.00;7400917;19;20082;-73
2023/01/12 07:01:34;;;;;;;9.95;1.48;;;;;;;6.21;93.32;100472.34;7400141;19;20086;-73
2023/01/12 07:04:06;;;;;;;7.93;1.50;;;;;;;6.23;92.71;100473.22;7398071;19;20086;-71
2023/01/12 07:06:34;;;;;;;8.90;1.77;;;;;;;6.26;92.92;100472.34;7399854;19;20082;-72
2023/01/12 07:09:04;;;;;;;10.80;2.00;;;;;;;6.28;92.84;100481.88;7399247;19;20086;-73
2023/01/12 07:11:33;;;;;;;6.20;1.40;;;;;;;6.31;93.21;100483.56;7399976;19;20026;-73
2023/01/12 07:14:01;;;;;;;7.88;1.80;;;;;;;6.32;91.73;100475.75;7398361;19;20097;-73
2023/01/12 07:16:30;;;;;;;9.00;1.83;;;;;;;6.34;92.40;100484.41;7399648;19;20025;-73
2023/01/12 07:18:58;;;;;;;7.63;2.35;;;;;;;6.38;92.29;100481.78;7400033;19;20085;-73
2023/01/12 07:21:29;;;;;;;6.07;2.50;;;;;;;6.38;92.04;100474.81;7399777;19;20019;-73
2023/01/12 07:23:58;;;;;;;7.93;1.98;;;;;;;6.42;91.68;100475.66;7398028;19;20101;-72
2023/01/12 07:26:26;;;;;;;6.78;1.50;;;;;;;6.45;91.65;100463.47;7399435;19;20090;-73
2023/01/12 07:28:54;;;;;;;5.95;1.45;;;;;;;6.48;91.65;100466.06;7397637;19;20070;-72
2023/01/12 07:31:23;;;;;;;5.65;1.60;;;;;;;6.51;90.86;100459.94;7396862;19;20078;-72
2023/01/12 07:33:57;;;;;;;6.15;1.60;;;;;;;6.53;90.06;100458.16;7397581;19;20015;-73
2023/01/12 07:36:28;;;;;;;7.07;1.40;;;;;;;6.56;90.69;100450.34;7399266;19;20082;-74
2023/01/12 07:38:57;;;;;;;4.40;1.40;;;;;;;6.60;89.87;100449.41;7398742;19;20086;-73
2023/01/12 07:44:07;;;;;;;5.60;1.42;;;;;;;6.66;90.12;100438.03;7396927;19;20014;-73
2023/01/12 07:46:35;;;;;;;6.22;1.40;;;;;;;6.69;89.83;100432.81;7400294;19;20025;-73
2023/01/12 07:49:10;;;;;;;8.02;1.70;;;;;;;6.71;90.15;100444.09;7398689;19;20029;-72
2023/01/12 07:51:41;;;;;;;6.00;1.60;;;;;;;6.74;90.23;100436.25;7398483;19;20597;-72
2023/01/12 07:54:10;;;;;;;5.85;2.08;;;;;;;6.77;90.31;100432.72;7396454;19;20089;-74
2023/01/12 07:56:38;;;;;;;4.43;1.40;;;;;;;6.78;89.84;100429.25;7395948;19;20027;-73
2023/01/12 07:59:06;;;;;;;6.97;1.88;;;;;;;6.80;90.63;100428.34;7395412;19;20070;-72
2023/01/12 08:01:36;;;;;;;8.43;1.50;;;;;;;6.81;89.94;100422.25;7398834;19;20098;-72
2023/01/12 08:04:04;;;;;;;4.15;1.70;;;;;;;6.83;90.65;100424.84;7395821;19;20010;-73
2023/01/12 08:06:32;;;;;;;8.30;3.38;;;;;;;6.82;90.01;100424.00;7396004;19;20021;-72
2023/01/12 08:09:04;;;;;;;7.85;2.05;;;;;;;6.83;89.99;100420.47;7396230;19;20494;-73
2023/01/12 08:11:32;;;;;;;7.30;1.33;;;;;;;6.85;90.67;100428.31;7395840;19;20077;-72
2023/01/12 08:14:01;;;;;;;6.32;1.30;;;;;;;6.85;90.06;100421.34;7395266;19;20486;-72
2023/01/12 08:16:34;;;;;;;7.88;1.90;;;;;;;6.85;89.50;100413.50;7395709;19;20018;-73
2023/01/12 08:19:08;;;;;;;8.32;1.67;;;;;;;6.86;88.71;100419.56;7397637;19;20572;-73
2023/01/12 08:21:44;;;;;;;8.07;1.73;;;;;;;6.87;88.26;100421.31;7397902;19;20017;-74
2023/01/12 08:24:18;;;;;;;5.95;1.60;;;;;;;6.92;90.74;100424.72;7396620;19;20036;-72
2023/01/12 08:26:50;;;;;;;;;;;;;;;6.91;87.12;100417.78;7398228;19;20015;-72
2023/01/12 08:29:28;;;;;;;6.55;1.42;;;;;;;6.91;90.62;100409.97;7396464;19;19974;-72
2023/01/12 08:31:58;;;;;;;6.43;1.50;;;;;;;6.94;90.27;100420.38;7396163;19;20018;-72
2023/01/12 08:34:28;;;;;;;10.85;1.98;;;;;;;6.97;90.33;100411.63;7395279;19;20098;-72
2023/01/12 08:36:59;;;;;;;7.88;2.20;;;;;;;6.98;90.09;100413.38;7397428;19;20536;-73
2023/01/12 08:39:34;;;;;;;10.82;1.92;;;;;;;7.00;90.81;100406.38;7397390;19;20015;-74
2023/01/12 08:42:02;;;;;;;6.45;1.30;;;;;;;7.03;89.30;100408.06;7397670;19;20022;-73
2023/01/12 08:44:33;;;;;;;5.28;1.52;;;;;;;7.05;89.11;100394.16;7395157;19;20006;-73
2023/01/12 08:47:02;;;;;;;8.32;1.42;;;;;;;7.07;89.69;100389.78;7398342;19;20019;-72
2023/01/12 08:49:32;;;;;;;7.65;1.42;;;;;;;7.10;89.58;100394.97;7397244;19;20082;-73
2023/01/12 08:52:00;;;;;;;6.90;1.60;;;;;;;7.13;88.32;100391.44;7397836;19;20017;-73
2023/01/12 08:54:31;;;;;;;7.68;2.47;;;;;;;7.19;90.07;100401.81;7393727;19;20078;-72
2023/01/12 08:57:00;;;;;;;7.15;2.30;;;;;;;7.20;88.49;100387.84;7395518;19;20086;-72
2023/01/12 08:59:28;;;;;;;6.60;2.70;;;;;;;7.27;88.95;100391.25;7396634;19;20018;-72
2023/01/12 09:01:57;;;;;;;8.48;1.90;;;;;;;7.32;89.06;100386.84;7396685;19;20027;-73
2023/01/12 09:04:25;;;;;;;9.27;2.50;;;;;;;7.35;89.26;100392.00;7415437;19;20014;-72
2023/01/12 09:06:54;;;;;;;8.30;2.13;;;;;;;7.39;88.94;100391.06;7407031;19;20018;-73
2023/01/12 09:09:23;;;;;;;4.70;2.33;;;;;;;7.43;89.50;100391.91;7396613;19;20022;-73
2023/01/12 09:11:54;;;;;;;7.00;1.58;;;;;;;7.48;89.22;100382.25;7395785;19;20022;-73
2023/01/12 09:14:24;;;;;;;7.00;1.25;;;;;;;7.52;88.75;100386.56;7395241;19;20022;-73
2023/01/12 09:16:54;;;;;;;7.95;1.50;;;;;;;7.56;87.29;100384.78;7396349;19;20027;-73
2023/01/12 09:19:23;;;;;;;7.78;1.52;;;;;;;7.60;88.92;100374.22;7396188;19;20018;-73
2023/01/12 09:21:51;;;;;;;6.40;1.75;;;;;;;7.62;88.50;100372.47;7395550;19;20372;-73
2023/01/12 09:24:20;;;;;;;6.65;1.55;;;;;;;7.66;87.28;100371.53;7394560;19;20035;-72
2023/01/12 09:26:48;;;;;;;5.57;1.77;;;;;;;7.68;85.76;100373.25;7395349;19;20033;-73
2023/01/12 09:29:20;;;;;;;9.15;1.58;;;;;;;7.70;86.27;100369.75;7394336;19;20015;-73
2023/01/12 09:31:48;;;;;;;8.15;1.92;;;;;;;7.72;86.37;100373.19;7396365;19;20019;-72
2023/01/12 09:34:16;;;;;;;7.57;1.48;;;;;;;7.75;87.29;100370.53;7394287;19;20105;-72
2023/01/12 09:36:45;;;;;;;12.85;4.10;;;;;;;7.77;86.83;100368.75;7395144;19;20541;-73
2023/01/12 09:39:17;;;;;;;10.93;3.55;;;;;;;7.78;85.65;100352.19;7395082;19;20015;-73
2023/01/12 09:47:23;;;;;;;7.82;1.90;;;;;;;7.88;86.07;100347.66;7394898;19;20366;-72
2023/01/12 09:49:57;;;;;;;7.53;1.48;;;;;;;7.90;83.58;100337.19;7393374;19;20011;-73
2023/01/12 09:52:29;;;;;;;4.65;1.25;;;;;;;7.90;83.31;100321.53;7395325;19;20074;-72
2023/01/12 09:54:58;;;;;;;4.43;1.42;;;;;;;7.97;85.53;100316.19;7393574;19;20019;-72
2023/01/12 09:58:00;;;;;;;6.80;1.58;;;;;;;8.02;81.65;100326.53;7394663;19;20089;-72
2023/01/12 10:00:31;;;;;;;9.95;2.30;;;;;;;8.06;84.09;100316.91;7392747;19;20066;-73
2023/01/12 10:03:09;;;;;;;7.18;1.80;;;;;;;8.07;84.25;100321.25;7394060;19;20027;-73
2023/01/12 10:05:41;;;;;;;7.10;1.55;;;;;;;8.10;84.71;100313.31;7393498;19;20024;-74
2023/01/12 10:08:18;;;;;;;7.00;1.88;;;;;;;8.10;83.93;100308.97;7400409;19;20086;-73
2023/01/12 10:11:00;;;;;;;8.65;2.00;;;;;;;8.13;83.82;100308.06;7401819;19;20441;-73
2023/01/12 10:13:41;;;;;;;3.85;1.52;;;;;;;8.13;84.75;100302.84;7400369;19;20517;-72
2023/01/12 10:16:22;;;;;;;9.18;1.88;;;;;;;8.17;82.49;100296.66;7400996;19;20489;-73
2023/01/12 10:18:55;;;;;;;6.75;1.70;;;;;;;8.19;83.84;100291.38;7401688;19;20074;-73
2023/01/12 10:21:25;;;;;;;7.03;1.60;;;;;;;8.24;85.04;100294.78;7402121;19;20025;-73
2023/01/12 10:23:56;;;;;;;7.90;1.65;;;;;;;8.26;84.20;100295.63;7399001;19;20015;-73
2023/01/12 10:26:26;;;;;;;7.60;1.65;;;;;;;8.30;84.16;100286.81;7402013;19;20022;-73
2023/01/12 10:28:57;;;;;;;6.22;1.73;;;;;;;8.35;83.56;100276.28;7400359;19;20011;-74
2023/01/12 10:31:28;;;;;;;6.53;1.55;;;;;;;8.37;80.10;100285.81;7401983;19;20090;-72
2023/01/12 10:34:08;;;;;;;7.93;1.58;;;;;;;8.43;80.40;100288.31;7398629;19;20028;-73
2023/01/12 10:36:43;;;;;;;7.00;1.50;;;;;;;8.47;82.11;100289.16;7401190;19;20026;-73
2023/01/12 10:39:30;;;;;;;5.82;1.50;;;;;;;8.55;78.79;100286.38;7398511;19;20015;-73
2023/01/12 10:45:19;;;;;;;;;;;;;;;8.67;78.54;100278.28;7400641;19;20015;-71
2023/01/12 10:47:52;;;;;;;6.90;1.50;;;;;;;8.71;81.64;100271.22;7401391;19;19918;-71
2023/01/12 10:50:26;;;;;;;6.07;1.48;;;;;;;8.72;80.10;100265.06;7397787;19;20034;-71
2023/01/12 10:53:01;;;;;;;9.77;1.63;;;;;;;8.73;78.65;100262.44;7399945;19;20014;-72
2023/01/12 10:55:36;;;;;;;7.43;1.45;;;;;;;8.74;79.60;100264.16;7400544;19;20027;-72
2023/01/12 10:58:05;;;;;;;6.30;0.98;;;;;;;8.76;81.68;100266.75;7400170;19;20074;-73
2023/01/12 11:00:35;;;;;;;5.60;0.90;;;;;;;8.78;81.07;100242.28;7400473;19;20015;-73
2023/01/12 11:03:31;;;;;;;7.32;1.95;;;;;;;8.80;79.69;100243.09;7399096;19;20042;-73
2023/01/12 11:06:16;;;;;;;9.13;1.58;;;;;;;8.78;77.97;100234.44;7397994;19;20022;-73
2023/01/12 11:08:46;;;;;;;8.82;1.17;;;;;;;8.80;81.97;100242.25;7398728;19;20022;-73
2023/01/12 11:11:31;;;;;;;6.80;1.67;;;;;;;8.80;81.28;100244.84;7399500;19;20488;-73
2023/01/12 11:14:02;;;;;;;2.72;1.10;;;;;;;8.78;80.10;100230.94;7398083;19;20018;-74
2023/01/12 11:16:34;;;;;;;7.10;1.60;;;;;;;8.77;80.77;100230.09;7400157;19;20082;-72
2023/01/12 11:19:20;;;;;;;7.88;1.52;;;;;;;8.77;79.75;100231.81;7401687;19;20022;-72
2023/01/12 11:21:52;;;;;;;6.22;1.13;;;;;;;8.78;81.64;100229.22;7400739;19;20018;-74
2023/01/12 11:24:35;;;;;;;3.38;0.98;;;;;;;8.74;80.20;100222.31;7397473;19;20075;-73
2023/01/12 11:27:13;;;;;;;4.18;1.40;;;;;;;8.73;80.82;100217.09;7399979;19;20086;-73
2023/01/12 11:29:50;;;;;;;6.82;1.58;;;;;;;8.68;81.76;100204.16;7397805;19;20087;-72
2023/01/12 11:32:26;;;;;;;7.60;1.40;;;;;;;8.62;82.50;100207.75;7399988;19;20022;-73
2023/01/12 11:35:03;;;;;;;6.68;1.92;;;;;;;8.58;81.40;100205.22;7396412;19;20015;-72
2023/01/12 11:37:37;;;;;;;4.43;1.63;;;;;;;8.53;82.04;100231.50;7399632;19;20036;-73
2023/01/12 11:40:14;;;;;;;3.33;1.07;;;;;;;8.50;82.11;100207.16;7399801;19;20392;-73
2023/01/12 11:45:42;;;;;;;5.43;1.05;;;;;;;8.43;82.09;100196.81;7397735;19;20014;-73
2023/01/12 11:48:22;;;;;;;3.47;0.80;;;;;;;8.46;80.82;100211.59;7398752;19;20581;-73
2023/01/12 11:50:55;;;;;;;3.10;1.17;;;;;;;8.46;79.87;100198.53;7399347;19;20078;-73
2023/01/12 11:53:26;;;;;;;2.75;0.77;;;;;;;8.52;79.42;100198.41;7404200;19;20098;-73
2023/01/12 11:56:23;;;;;;;2.83;0.80;;;;;;;8.57;78.57;100203.53;7397449;19;20089;-72
2023/01/12 11:58:58;;;;;;;3.97;0.80;;;;;;;8.62;78.55;100192.06;7394633;19;20011;-72
2023/01/12 12:01:37;;;;;;;2.67;0.80;;;;;;;8.68;78.88;100208.50;7399515;19;20086;-73
2023/01/12 12:04:29;;;;;;;4.28;0.77;;;;;;;8.73;77.82;100186.59;7396914;19;20035;-71
2023/01/12 12:07:16;;;;;;;2.22;0.75;;;;;;;8.79;77.31;100172.50;7398530;19;20022;-73
2023/01/12 12:10:01;;;;;;;3.45;0.98;;;;;;;8.82;76.71;100193.38;7395494;19;20015;-72
2023/01/12 12:12:42;;;;;;;2.20;0.90;;;;;;;8.86;76.80;100199.38;7396227;19;20082;-74
2023/01/12 12:15:27;;;;;;;3.42;1.05;;;;;;;8.89;76.20;100192.31;7397248;19;20485;-73
2023/01/12 12:18:09;;;;;;;19.55;5.10;;;;;;;8.92;76.04;100204.47;7397294;19;20082;-73
2023/01/12 12:20:49;;;;;;;21.60;4.95;;;;;;;8.94;76.96;100195.69;7397717;19;20082;-72
2023/01/12 12:23:35;;;;;;;9.73;2.25;;;;;;;8.94;76.54;100193.06;7396233;19;20024;-72
2023/01/12 12:26:10;;;;;;;9.68;1.98;;;;;;;8.97;76.63;100173.81;7395533;19;20017;-72
2023/01/12 12:28:56;;;;;;;4.50;1.25;;;;;;;8.95;76.24;100188.72;7396233;19;20423;-72
2023/01/12 12:31:55;;;;;;;5.20;1.33;;;;;;;8.93;76.03;100170.44;7395816;19;20086;-74
2023/01/12 12:34:48;;;;;;;1.08;0.75;;;;;;;8.95;76.93;100184.31;7396008;19;20075;-72